Time;durP1;ratioP1;P1;durP2;ratioP2;P2;SDS_P1;SDS_P2;PMS_P1;PMS_P2;Temp;Humidity;BMP_temperature;BMP_pressure;BME280_temperature;BME280_humidity;BME280_pressure;Samples;Min_cycle;Max_cycle;Signal;HPM_P1;HPM_P2
2022/01/04 00:00:27;;;;;;;11.10;3.93;;;;;;;7.18;84.60;93120.97;5039404;28;20052;-61
2022/01/04 00:02:54;;;;;;;4.32;1.52;;;;;;;7.11;85.59;93118.34;5009117;28;20042;-61
2022/01/04 00:05:21;;;;;;;3.47;1.50;;;;;;;7.00;86.03;93104.09;5007855;28;20054;-61
2022/01/04 00:07:48;;;;;;;4.18;1.40;;;;;;;6.99;86.09;93110.72;5008272;28;20057;-61
2022/01/04 00:10:20;;;;;;;2.78;1.23;;;;;;;7.02;86.37;93092.75;5007385;28;20041;-60
2022/01/04 00:15:35;;;;;;;7.05;2.22;;;;;;;7.02;86.59;93095.50;5007985;28;20042;-61
2022/01/04 00:18:03;;;;;;;7.55;2.70;;;;;;;7.05;86.33;93090.00;5007347;28;20068;-61
2022/01/04 00:20:30;;;;;;;6.43;2.20;;;;;;;6.95;86.40;93088.19;5007565;28;20061;-62
2022/01/04 00:22:57;;;;;;;5.88;2.10;;;;;;;6.94;86.34;93087.44;5008315;28;20034;-62
2022/01/04 00:25:24;;;;;;;8.93;2.70;;;;;;;6.96;87.19;93067.91;5007587;28;20115;-61
2022/01/04 00:27:50;;;;;;;4.07;1.80;;;;;;;6.76;87.65;93065.06;5007333;28;20050;-62
2022/01/04 00:30:17;;;;;;;4.00;1.77;;;;;;;6.82;87.35;93046.31;5008571;28;20054;-61
2022/01/04 00:32:44;;;;;;;4.82;2.00;;;;;;;6.95;86.39;93047.28;5012378;28;20042;-61
2022/01/04 00:35:11;;;;;;;5.88;2.40;;;;;;;7.01;86.44;93051.06;5011948;28;20468;-62
2022/01/04 00:37:38;;;;;;;9.40;3.80;;;;;;;6.97;87.08;93053.09;5011747;28;20491;-62
2022/01/04 00:40:07;;;;;;;6.55;2.38;;;;;;;6.92;87.44;93042.63;5012466;28;20050;-61
2022/01/04 00:42:34;;;;;;;7.70;3.10;;;;;;;6.98;86.75;93030.88;5011526;28;20064;-62
2022/01/04 00:45:01;;;;;;;5.75;2.35;;;;;;;6.71;88.26;93014.50;5011894;28;20045;-63
2022/01/04 00:47:40;;;;;;;7.60;2.70;;;;;;;6.76;88.36;93008.59;5010179;28;20045;-62
2022/01/04 00:50:08;;;;;;;7.17;2.27;;;;;;;6.78;88.17;93010.91;5040442;28;20262;-62
2022/01/04 00:52:35;;;;;;;4.53;1.70;;;;;;;6.84;87.31;93006.53;5011077;28;20052;-62
2022/01/04 00:55:03;;;;;;;4.88;1.90;;;;;;;6.87;87.18;93005.69;5027324;28;20056;-62
2022/01/04 00:57:29;;;;;;;4.15;1.70;;;;;;;6.88;85.98;92993.63;5010955;28;20072;-62
2022/01/04 00:59:56;;;;;;;2.60;1.27;;;;;;;7.44;81.12;92986.81;5012078;28;20054;-62
2022/01/04 01:02:23;;;;;;;5.53;1.80;;;;;;;7.42;82.21;92984.50;5011615;28;20052;-62
2022/01/04 01:04:50;;;;;;;22.95;5.28;;;;;;;7.42;81.64;92984.50;5011353;28;20107;-61
2022/01/04 01:07:17;;;;;;;5.95;1.48;;;;;;;7.59;79.62;92977.94;5006869;28;20057;-61
2022/01/04 01:10:01;;;;;;;4.20;1.60;;;;;;;7.71;79.01;92982.00;5011948;28;20045;-62
2022/01/04 01:12:27;;;;;;;7.72;2.25;;;;;;;7.79;78.69;92975.22;5011483;28;20046;-61
2022/01/04 01:14:55;;;;;;;4.20;1.37;;;;;;;7.84;76.89;92973.94;5010233;28;20038;-62
2022/01/04 01:17:22;;;;;;;2.85;1.17;;;;;;;8.08;75.42;92971.88;5010816;28;20050;-61
2022/01/04 01:19:49;;;;;;;3.83;1.50;;;;;;;8.11;75.02;92968.31;5009593;28;20064;-61
2022/01/04 01:22:16;;;;;;;2.83;1.17;;;;;;;8.20;74.47;92946.63;5011250;28;20050;-61
2022/01/04 01:24:43;;;;;;;3.58;1.42;;;;;;;8.23;74.86;92942.31;5011197;28;20046;-61
2022/01/04 01:27:09;;;;;;;8.57;2.90;;;;;;;8.24;73.86;92943.06;5010232;28;20056;-62
2022/01/04 01:29:36;;;;;;;3.22;1.40;;;;;;;8.29;73.26;92920.69;5010828;28;20048;-61
2022/01/04 01:32:03;;;;;;;5.32;1.60;;;;;;;8.35;73.23;92938.13;5042535;28;20046;-62
2022/01/04 01:34:30;;;;;;;2.88;1.10;;;;;;;8.34;72.86;92929.16;5010511;28;20050;-61
2022/01/04 01:36:57;;;;;;;3.80;1.55;;;;;;;8.32;73.33;92931.53;5011427;28;20052;-61
2022/01/04 01:39:24;;;;;;;4.27;1.57;;;;;;;8.31;74.04;92943.69;5011065;28;20042;-61
2022/01/04 01:41:50;;;;;;;3.17;1.40;;;;;;;8.38;73.10;92926.34;5008773;28;20499;-62
2022/01/04 01:44:18;;;;;;;3.17;1.30;;;;;;;8.28;74.45;92911.72;5009891;28;20054;-61
2022/01/04 01:46:45;;;;;;;3.45;1.42;;;;;;;8.23;73.69;92903.25;5010217;28;20041;-61
2022/01/04 01:49:12;;;;;;;4.95;1.70;;;;;;;8.20;73.67;92902.16;5010163;28;20045;-62
2022/01/04 01:51:39;;;;;;;3.83;1.70;;;;;;;8.23;74.24;92890.38;5010038;28;20037;-61
2022/01/04 01:54:06;;;;;;;2.72;1.30;;;;;;;8.23;74.66;92895.84;5010951;28;20041;-62
2022/01/04 01:56:32;;;;;;;3.33;1.65;;;;;;;8.21;73.90;92898.22;5010296;28;20050;-62
2022/01/04 01:58:59;;;;;;;2.85;1.13;;;;;;;8.29;73.43;92882.41;5042132;28;20040;-61
2022/01/04 02:01:26;;;;;;;3.05;1.40;;;;;;;8.30;72.76;92868.34;5010356;28;20050;-61
2022/01/04 02:03:53;;;;;;;2.83;1.30;;;;;;;8.40;72.55;92866.53;5010654;28;20466;-61
2022/01/04 02:06:21;;;;;;;3.70;1.80;;;;;;;8.39;71.70;92868.50;5006396;28;20533;-61
2022/01/04 02:08:47;;;;;;;3.70;2.08;;;;;;;8.45;72.42;92859.81;5008778;28;20064;-61
2022/01/04 02:11:15;;;;;;;2.70;1.30;;;;;;;8.38;72.51;92852.53;5011077;28;20042;-61
2022/01/04 02:13:42;;;;;;;3.75;1.60;;;;;;;8.42;72.66;92839.56;5008695;28;20532;-60
2022/01/04 02:16:11;;;;;;;4.23;1.60;;;;;;;8.52;72.25;92826.84;5009924;28;20042;-61
2022/01/04 02:18:37;;;;;;;3.30;1.50;;;;;;;8.58;71.06;92809.47;5007606;28;20049;-61
2022/01/04 02:21:04;;;;;;;3.40;1.60;;;;;;;8.60;71.00;92798.88;5010089;28;20042;-61
2022/01/04 02:23:33;;;;;;;2.75;1.35;;;;;;;8.57;70.75;92774.34;5008494;28;20060;-62
2022/01/04 02:26:02;;;;;;;4.03;1.77;;;;;;;8.59;71.10;92785.63;5009593;28;20045;-61
2022/01/04 02:28:30;;;;;;;3.97;1.50;;;;;;;8.65;70.49;92772.97;5008496;28;20045;-61
2022/01/04 02:30:57;;;;;;;3.75;1.67;;;;;;;8.65;70.75;92791.34;5009258;28;20046;-61
2022/01/04 02:33:23;;;;;;;2.90;1.40;;;;;;;8.66;69.84;92782.72;5008549;28;20396;-60
2022/01/04 02:35:50;;;;;;;3.53;1.77;;;;;;;8.67;70.27;92775.28;5008931;28;20452;-61
2022/01/04 02:38:17;;;;;;;5.82;1.50;;;;;;;8.61;70.96;92747.69;5008466;28;20046;-61
2022/01/04 02:40:44;;;;;;;3.00;1.20;;;;;;;8.66;70.42;92762.81;5009635;28;20054;-61
2022/01/04 02:43:11;;;;;;;3.30;1.20;;;;;;;8.77;69.08;92757.81;5009563;28;20050;-62
2022/01/04 02:45:38;;;;;;;3.78;1.45;;;;;;;8.77;69.96;92753.13;5009135;28;20052;-62
2022/01/04 02:48:05;;;;;;;2.97;1.60;;;;;;;8.72;69.96;92750.16;5009720;28;20087;-61
2022/01/04 02:50:32;;;;;;;4.82;2.08;;;;;;;8.68;69.91;92738.53;5008813;28;20128;-61
2022/01/04 02:52:59;;;;;;;2.90;1.40;;;;;;;8.67;69.91;92731.50;5008796;28;20034;-61
2022/01/04 02:55:25;;;;;;;3.17;1.38;;;;;;;8.69;69.45;92729.91;5008552;28;20049;-61
2022/01/04 02:57:52;;;;;;;3.40;1.65;;;;;;;8.64;69.99;92721.44;5008980;28;20048;-61
2022/01/04 03:00:19;;;;;;;3.00;1.40;;;;;;;8.55;70.34;92725.59;5008418;28;20049;-60
2022/01/04 03:02:46;;;;;;;3.20;1.52;;;;;;;8.45;71.25;92726.63;5009534;28;20052;-61
2022/01/04 03:05:13;;;;;;;3.50;1.53;;;;;;;8.29;72.28;92719.22;5009259;28;20046;-61
2022/01/04 03:07:40;;;;;;;2.97;1.40;;;;;;;8.18;72.70;92718.69;5007482;28;20462;-61
2022/01/04 03:10:07;;;;;;;3.78;1.30;;;;;;;8.18;72.49;92729.63;5008718;28;20046;-61
2022/01/04 03:12:36;;;;;;;2.90;1.40;;;;;;;8.15;72.59;92725.03;5007779;28;20154;-63
2022/01/04 03:15:03;;;;;;;2.83;1.33;;;;;;;8.17;73.80;92711.72;5008480;28;20049;-61
2022/01/04 03:17:30;;;;;;;3.00;1.33;;;;;;;8.26;72.25;92700.91;5007503;28;20434;-61
2022/01/04 03:19:57;;;;;;;3.00;1.38;;;;;;;8.20;72.59;92713.56;5023255;28;20068;-61
2022/01/04 03:22:24;;;;;;;2.95;1.30;;;;;;;8.20;72.79;92708.09;5007575;28;20057;-61
2022/01/04 03:24:51;;;;;;;3.85;1.40;;;;;;;8.20;73.22;92697.19;5008935;28;20403;-61
2022/01/04 03:27:18;;;;;;;3.60;1.33;;;;;;;8.20;72.28;92680.78;5007590;28;20073;-61
2022/01/04 03:29:44;;;;;;;3.43;1.30;;;;;;;8.22;72.80;92681.13;5008670;28;20050;-61
2022/01/04 03:32:11;;;;;;;3.15;1.58;;;;;;;8.23;72.12;92681.88;5008610;28;20042;-61
2022/01/04 03:34:38;;;;;;;4.40;1.50;;;;;;;8.24;72.30;92683.44;5007774;28;20052;-61
2022/01/04 03:37:05;;;;;;;4.63;1.27;;;;;;;8.29;71.97;92682.88;5024399;28;20095;-61
2022/01/04 03:39:31;;;;;;;3.85;1.27;;;;;;;8.26;72.32;92679.06;5007753;28;20049;-61
2022/01/04 03:41:59;;;;;;;2.83;1.20;;;;;;;8.24;71.60;92675.22;5008466;28;20042;-61
2022/01/04 03:44:26;;;;;;;2.90;1.25;;;;;;;8.28;72.86;92673.94;5023774;28;20049;-61
2022/01/04 03:46:55;;;;;;;2.92;1.42;;;;;;;8.25;71.95;92674.00;5008429;28;20505;-61
2022/01/04 03:49:22;;;;;;;3.13;1.30;;;;;;;8.30;71.62;92668.03;5008185;28;20486;-61
2022/01/04 03:51:49;;;;;;;3.55;1.20;;;;;;;8.29;72.71;92675.47;5007639;28;20125;-61
2022/01/04 03:54:16;;;;;;;2.60;1.30;;;;;;;8.32;72.97;92671.09;5008695;28;20410;-60
2022/01/04 03:56:43;;;;;;;3.38;1.20;;;;;;;8.29;73.01;92677.41;5007457;28;20045;-61
2022/01/04 03:59:10;;;;;;;3.05;1.13;;;;;;;8.32;72.83;92668.38;5009560;28;20045;-61
2022/01/04 04:01:37;;;;;;;3.42;1.23;;;;;;;8.33;73.08;92661.69;5008138;28;20041;-61
2022/01/04 04:04:04;;;;;;;5.07;1.52;;;;;;;8.32;73.71;92668.38;5007672;28;20056;-61
2022/01/04 04:06:31;;;;;;;3.43;1.37;;;;;;;8.28;74.47;92664.97;5007774;28;20049;-61
2022/01/04 04:08:57;;;;;;;3.40;1.38;;;;;;;8.20;75.74;92667.88;5007958;28;20052;-61
2022/01/04 04:11:25;;;;;;;3.75;1.30;;;;;;;8.18;76.04;92653.13;5008071;28;20042;-61
2022/01/04 04:13:52;;;;;;;2.42;1.10;;;;;;;8.11;77.22;92653.28;5008421;28;20045;-61
2022/01/04 04:16:19;;;;;;;3.00;1.40;;;;;;;8.11;77.51;92654.09;5008371;28;20045;-60
2022/01/04 04:18:46;;;;;;;3.53;1.20;;;;;;;8.11;77.93;92650.56;5008558;28;20113;-61
2022/01/04 04:21:13;;;;;;;3.05;1.10;;;;;;;8.12;78.08;92646.66;5008807;28;20459;-61
2022/01/04 04:23:40;;;;;;;2.75;1.30;;;;;;;8.13;77.75;92645.44;5007578;28;20652;-61
2022/01/04 04:26:07;;;;;;;4.03;1.33;;;;;;;8.09;79.12;92634.63;5007621;28;20466;-61
2022/01/04 04:28:34;;;;;;;3.20;1.33;;;;;;;8.05;79.12;92639.41;5006817;28;20073;-61
2022/01/04 04:31:03;;;;;;;2.77;1.10;;;;;;;8.06;80.26;92635.47;5008331;28;20065;-61
2022/01/04 04:33:30;;;;;;;3.17;1.10;;;;;;;7.95;80.87;92632.25;5008159;28;20056;-61
2022/01/04 04:35:57;;;;;;;2.35;1.08;;;;;;;7.98;81.33;92628.66;5008419;28;20034;-61
2022/01/04 04:38:24;;;;;;;3.33;1.20;;;;;;;7.95;80.72;92627.56;5008070;28;20042;-61
2022/01/04 04:40:51;;;;;;;2.40;1.08;;;;;;;7.99;80.80;92614.56;5008004;28;20034;-61
2022/01/04 04:43:18;;;;;;;2.60;1.10;;;;;;;7.96;80.94;92617.41;5022703;28;20166;-60
2022/01/04 04:45:44;;;;;;;3.22;1.20;;;;;;;7.90;82.30;92624.56;5008170;28;20045;-60
2022/01/04 04:48:11;;;;;;;2.83;1.20;;;;;;;7.90;81.30;92610.91;5008666;28;20042;-61
2022/01/04 04:50:38;;;;;;;2.80;1.30;;;;;;;7.87;81.67;92603.56;5007884;28;20191;-61
2022/01/04 04:53:05;;;;;;;2.88;1.20;;;;;;;7.84;82.40;92590.78;5008030;28;20046;-61
2022/01/04 04:55:32;;;;;;;3.03;1.40;;;;;;;7.86;81.85;92611.00;5005743;28;20052;-61
2022/01/04 04:57:59;;;;;;;2.55;1.10;;;;;;;7.86;82.15;92593.84;5002776;28;20038;-62
2022/01/04 05:00:26;;;;;;;3.00;1.35;;;;;;;7.88;82.48;92602.38;5008358;28;20050;-61
2022/01/04 05:02:53;;;;;;;5.90;2.00;;;;;;;7.96;83.35;92599.03;5007903;28;20073;-61
2022/01/04 05:05:20;;;;;;;3.70;1.10;;;;;;;7.97;83.38;92589.66;5007760;28;20046;-60
2022/01/04 05:07:46;;;;;;;2.33;1.00;;;;;;;7.98;83.14;92590.41;5022898;28;20042;-61
2022/01/04 05:10:13;;;;;;;2.20;0.82;;;;;;;8.03;83.43;92591.84;5023285;28;20038;-61
2022/01/04 05:12:40;;;;;;;2.53;0.90;;;;;;;8.10;83.26;92591.66;5022421;28;20042;-61
2022/01/04 05:15:07;;;;;;;2.50;0.90;;;;;;;8.02;84.45;92595.78;5007734;28;20038;-62
2022/01/04 05:17:34;;;;;;;2.67;0.95;;;;;;;8.11;83.94;92587.72;5008970;28;20117;-61
2022/01/04 05:20:01;;;;;;;2.87;1.10;;;;;;;8.09;86.31;92595.56;5011426;28;20238;-62
2022/01/04 05:22:28;;;;;;;2.83;1.17;;;;;;;7.96;87.56;92585.38;5025901;28;20052;-61
2022/01/04 05:24:54;;;;;;;2.30;1.00;;;;;;;8.00;87.67;92585.28;5026613;28;20049;-62
2022/01/04 05:27:21;;;;;;;3.13;0.98;;;;;;;7.96;87.66;92576.41;5026208;28;20056;-61
2022/01/04 05:29:48;;;;;;;2.22;0.95;;;;;;;7.91;89.33;92558.59;5010006;28;20042;-61
2022/01/04 05:32:15;;;;;;;2.93;0.90;;;;;;;7.91;89.51;92549.66;5008299;28;20045;-60
2022/01/04 05:34:42;;;;;;;3.05;1.48;;;;;;;7.82;90.12;92547.53;5042840;28;20038;-61
2022/01/04 05:37:09;;;;;;;3.80;1.33;;;;;;;7.83;90.71;92559.19;5011717;28;20044;-61
2022/01/04 05:39:36;;;;;;;2.83;1.10;;;;;;;7.85;91.15;92551.34;5010935;28;20052;-61
2022/01/04 05:42:03;;;;;;;2.92;1.00;;;;;;;7.85;91.04;92546.66;5025480;28;20060;-61
2022/01/04 05:44:30;;;;;;;2.77;1.07;;;;;;;7.92;91.72;92535.53;5010804;28;20442;-61
2022/01/04 05:46:57;;;;;;;2.90;1.10;;;;;;;7.93;91.88;92542.53;5010871;28;20049;-61
2022/01/04 05:49:24;;;;;;;2.53;1.10;;;;;;;7.85;92.71;92534.94;5010007;28;20046;-61
2022/01/04 05:51:50;;;;;;;4.18;1.20;;;;;;;7.87;92.33;92536.06;5010862;28;20092;-61
2022/01/04 05:54:17;;;;;;;2.30;1.05;;;;;;;7.90;91.46;92537.94;5010435;28;20046;-61
2022/01/04 05:56:44;;;;;;;2.47;1.20;;;;;;;7.88;91.90;92532.13;5010739;28;20484;-61
2022/01/04 05:59:11;;;;;;;2.40;1.20;;;;;;;7.87;93.04;92527.09;5011025;28;20049;-61
2022/01/04 06:01:38;;;;;;;2.80;1.08;;;;;;;7.86;92.65;92515.41;5009899;28;20103;-62
2022/01/04 06:04:05;;;;;;;3.90;1.60;;;;;;;7.89;92.67;92524.72;5009851;28;20041;-62
2022/01/04 06:06:33;;;;;;;2.45;1.10;;;;;;;7.92;92.00;92532.81;5010374;28;20049;-61
2022/01/04 06:09:00;;;;;;;2.90;1.30;;;;;;;7.90;92.41;92518.06;5010511;28;20052;-61
2022/01/04 06:11:58;;;;;;;2.67;1.30;;;;;;;7.89;92.49;92536.41;5010297;28;20056;-61
2022/01/04 06:17:04;;;;;;;3.33;1.40;;;;;;;7.96;93.13;92519.06;5010592;28;20038;-61
2022/01/04 06:19:31;;;;;;;3.83;1.50;;;;;;;7.91;93.96;92522.34;5010104;28;20053;-61
2022/01/04 06:21:58;;;;;;;3.60;1.33;;;;;;;7.88;93.39;92525.91;5008923;28;20050;-61
2022/01/04 06:24:25;;;;;;;3.35;1.35;;;;;;;7.97;92.42;92499.50;5010175;28;20678;-61
2022/01/04 06:26:52;;;;;;;2.67;1.10;;;;;;;7.96;92.00;92508.13;5010335;28;20111;-61
2022/01/04 06:29:22;;;;;;;3.33;1.20;;;;;;;7.97;92.42;92509.66;5009020;28;20073;-61
2022/01/04 06:31:49;;;;;;;3.05;1.00;;;;;;;7.93;92.19;92501.56;5009922;28;20042;-61
2022/01/04 06:34:16;;;;;;;2.50;1.30;;;;;;;7.96;92.94;92506.16;5008542;28;20057;-60
2022/01/04 06:36:43;;;;;;;3.00;1.65;;;;;;;7.93;92.77;92485.19;5041564;28;20545;-61
2022/01/04 06:39:09;;;;;;;3.70;1.70;;;;;;;7.88;93.36;92482.97;5010037;28;20037;-61
2022/01/04 06:41:36;;;;;;;3.70;1.50;;;;;;;7.81;94.03;92480.44;5031987;28;20398;-61
2022/01/04 06:44:03;;;;;;;4.72;1.60;;;;;;;7.77;94.40;92477.06;5024831;28;20038;-61
2022/01/04 06:46:30;;;;;;;5.13;1.50;;;;;;;7.78;94.25;92465.69;5008318;28;20045;-61
2022/01/04 06:48:57;;;;;;;3.78;1.50;;;;;;;7.78;94.05;92462.19;5008449;28;20038;-61
2022/01/04 06:51:23;;;;;;;3.85;1.55;;;;;;;7.82;94.15;92467.56;5009439;28;20056;-61
2022/01/04 06:53:50;;;;;;;3.45;1.48;;;;;;;7.79;94.54;92458.28;5024099;28;20113;-61
2022/01/04 06:56:17;;;;;;;3.28;1.70;;;;;;;7.83;93.69;92456.22;5009631;28;20042;-61
2022/01/04 06:58:43;;;;;;;3.13;1.50;;;;;;;7.91;93.45;92452.06;5008478;28;20045;-61
2022/01/04 07:01:10;;;;;;;4.15;1.75;;;;;;;8.03;92.33;92442.38;5009585;28;20045;-61
2022/01/04 07:03:37;;;;;;;3.05;1.35;;;;;;;8.12;91.89;92433.50;5009523;28;20061;-61
2022/01/04 07:06:04;;;;;;;4.97;1.77;;;;;;;8.11;91.97;92432.75;5009482;28;20052;-61
2022/01/04 07:08:31;;;;;;;5.53;2.20;;;;;;;8.11;92.11;92430.03;5009184;28;20038;-61
2022/01/04 07:10:58;;;;;;;4.20;1.87;;;;;;;7.96;92.94;92428.91;5009319;28;20038;-62
2022/01/04 07:13:24;;;;;;;3.30;1.55;;;;;;;7.94;92.74;92434.78;5009231;28;20042;-62
2022/01/04 07:15:51;;;;;;;3.45;1.70;;;;;;;8.05;92.39;92431.78;5009288;28;20072;-62
2022/01/04 07:18:18;;;;;;;2.80;1.40;;;;;;;8.14;91.88;92434.59;5009280;28;20050;-62
2022/01/04 07:20:45;;;;;;;3.28;1.45;;;;;;;8.11;91.43;92430.03;5009651;28;20469;-61
2022/01/04 07:23:11;;;;;;;3.90;1.57;;;;;;;8.04;92.00;92438.41;5007447;28;20037;-62
2022/01/04 07:25:38;;;;;;;3.30;1.50;;;;;;;8.02;92.12;92440.81;4996384;28;20054;-62
2022/01/04 07:28:05;;;;;;;3.65;1.50;;;;;;;8.14;90.76;92431.13;5009624;28;20054;-61
2022/01/04 07:30:32;;;;;;;4.38;1.80;;;;;;;7.98;91.91;92431.97;5008820;28;20045;-61
2022/01/04 07:32:59;;;;;;;3.70;1.90;;;;;;;7.97;92.03;92433.19;5009034;28;20045;-61
2022/01/04 07:35:25;;;;;;;3.77;1.73;;;;;;;7.94;91.66;92437.53;5008764;28;20052;-61
2022/01/04 07:37:52;;;;;;;3.83;1.63;;;;;;;7.99;92.12;92431.53;5008060;28;20046;-62
2022/01/04 07:40:20;;;;;;;3.55;1.88;;;;;;;7.94;91.95;92437.53;5008009;28;20061;-61
2022/01/04 07:42:47;;;;;;;3.80;1.70;;;;;;;7.94;91.60;92443.00;5007465;28;20076;-61
2022/01/04 07:45:15;;;;;;;4.38;1.75;;;;;;;7.95;92.45;92436.34;5008917;28;20041;-61
2022/01/04 07:47:42;;;;;;;3.63;1.60;;;;;;;7.97;91.93;92436.66;5007701;28;20046;-61
2022/01/04 07:50:11;;;;;;;3.90;1.80;;;;;;;7.94;91.80;92445.72;5007954;28;20067;-61
2022/01/04 07:52:38;;;;;;;3.38;1.85;;;;;;;7.93;92.02;92427.06;5006945;28;20045;-61
2022/01/04 07:55:05;;;;;;;3.28;1.83;;;;;;;7.97;91.36;92425.75;5007777;28;20406;-61
2022/01/04 07:57:32;;;;;;;5.43;1.58;;;;;;;8.00;90.72;92422.13;5006702;28;20084;-61
2022/01/04 07:59:59;;;;;;;3.43;1.40;;;;;;;8.07;89.58;92421.16;5006279;28;20140;-61
2022/01/04 08:02:26;;;;;;;3.50;1.50;;;;;;;8.10;89.89;92423.00;5007382;28;20092;-61
2022/01/04 08:04:52;;;;;;;63.35;25.60;;;;;;;8.17;89.56;92425.53;5007514;28;20046;-60
2022/01/04 08:07:19;;;;;;;3.80;2.00;;;;;;;8.27;88.09;92420.97;5007247;28;20066;-60
2022/01/04 08:09:46;;;;;;;3.38;1.50;;;;;;;8.32;87.50;92420.41;5007791;28;20048;-62
2022/01/04 08:12:13;;;;;;;3.50;1.50;;;;;;;8.38;87.55;92415.91;5007093;28;20064;-62
2022/01/04 08:14:40;;;;;;;2.72;1.25;;;;;;;8.45;86.34;92417.72;4987232;28;20836;-62
2022/01/04 08:17:07;;;;;;;4.32;1.60;;;;;;;8.46;86.43;92411.03;4988062;28;20051;-62
2022/01/04 08:19:34;;;;;;;3.97;1.60;;;;;;;8.53;85.24;92404.56;4987572;28;20545;-62
2022/01/04 08:22:02;;;;;;;3.42;1.60;;;;;;;8.58;85.54;92406.75;4987246;28;20369;-62
2022/01/04 08:24:28;;;;;;;3.83;1.70;;;;;;;8.52;85.98;92411.25;5017179;28;20042;-62
2022/01/04 08:26:55;;;;;;;3.38;1.60;;;;;;;8.66;84.94;92421.72;5002711;28;20047;-62
2022/01/04 08:29:24;;;;;;;3.40;1.65;;;;;;;8.69;84.26;92407.19;4987236;28;20443;-61
2022/01/04 08:31:51;;;;;;;6.60;2.40;;;;;;;8.71;85.03;92415.72;4988114;28;20043;-61
2022/01/04 08:34:18;;;;;;;5.80;2.53;;;;;;;8.80;84.15;92412.28;4987415;28;20077;-61
2022/01/04 08:36:45;;;;;;;5.97;1.37;;;;;;;9.09;82.53;92394.91;4988166;28;20035;-62
2022/01/04 08:39:14;;;;;;;4.30;1.40;;;;;;;9.20;81.89;92412.50;4987635;28;20053;-62
2022/01/04 08:41:54;;;;;;;3.50;1.50;;;;;;;9.22;81.81;92414.81;4987197;28;21702;-62
2022/01/04 08:44:23;;;;;;;6.63;2.13;;;;;;;9.36;81.43;92399.84;4987518;28;20047;-61
2022/01/04 08:46:50;;;;;;;3.58;1.40;;;;;;;9.44;81.90;92414.03;4988120;28;20035;-62
2022/01/04 08:49:17;;;;;;;3.03;1.20;;;;;;;9.39;82.99;92407.16;4988066;28;20074;-61
2022/01/04 08:51:44;;;;;;;3.13;1.30;;;;;;;9.31;84.59;92411.38;4990138;28;20035;-62
2022/01/04 08:54:11;;;;;;;3.83;1.50;;;;;;;9.18;86.67;92398.50;4992503;28;20050;-62
2022/01/04 08:56:38;;;;;;;6.65;2.20;;;;;;;9.20;86.09;92414.47;5023406;28;20488;-62
2022/01/04 08:59:05;;;;;;;2.80;1.20;;;;;;;9.24;85.98;92385.00;4992252;28;20042;-62
2022/01/04 09:01:32;;;;;;;3.47;1.23;;;;;;;9.23;86.29;92386.22;4991827;28;20353;-61
2022/01/04 09:04:01;;;;;;;4.65;1.50;;;;;;;9.19;86.23;92372.66;4991767;28;20061;-61
2022/01/04 09:06:28;;;;;;;2.78;1.40;;;;;;;9.22;86.46;92357.31;5002336;28;20054;-61
2022/01/04 09:08:56;;;;;;;2.92;1.30;;;;;;;9.28;85.58;92346.56;4990955;28;20049;-62
2022/01/04 09:11:24;;;;;;;3.50;1.38;;;;;;;9.27;86.38;92356.75;4991437;28;20058;-61
2022/01/04 09:13:55;;;;;;;4.67;1.67;;;;;;;9.39;85.36;92347.69;4991768;28;20050;-61
2022/01/04 09:19:07;;;;;;;4.20;1.70;;;;;;;9.53;83.83;92354.63;4991154;28;20034;-61
2022/01/04 09:21:34;;;;;;;3.95;1.65;;;;;;;9.50;83.90;92363.75;5022500;28;20038;-62
2022/01/04 09:24:01;;;;;;;5.97;1.90;;;;;;;9.64;82.92;92367.16;5000952;28;20052;-61
2022/01/04 09:26:29;;;;;;;3.43;1.60;;;;;;;9.67;82.33;92353.34;5036017;28;20050;-63
2022/01/04 09:28:56;;;;;;;3.85;1.70;;;;;;;9.80;80.96;92348.56;5011739;28;20060;-62
2022/01/04 09:31:25;;;;;;;5.50;2.20;;;;;;;9.92;80.39;92337.94;5011056;28;20046;-62
2022/01/04 09:33:53;;;;;;;4.30;1.83;;;;;;;10.09;79.45;92338.47;5043256;28;20046;-62
2022/01/04 09:36:30;;;;;;;3.75;1.58;;;;;;;10.25;78.85;92337.47;5010125;28;20053;-62
2022/01/04 09:38:58;;;;;;;2.80;1.20;;;;;;;10.26;78.23;92319.78;5010778;28;20253;-64
2022/01/04 09:41:24;;;;;;;6.18;2.03;;;;;;;10.35;78.11;92336.31;5041545;28;20073;-64
2022/01/04 09:43:52;;;;;;;3.42;1.55;;;;;;;10.34;77.40;92334.78;5010487;28;20056;-63
2022/01/04 09:46:19;;;;;;;3.15;1.40;;;;;;;10.51;75.52;92324.31;5010980;28;20050;-62
2022/01/04 09:48:46;;;;;;;3.15;1.55;;;;;;;10.49;76.16;92332.25;5010501;28;20064;-62
2022/01/04 09:51:15;;;;;;;3.37;1.30;;;;;;;10.44;76.12;92327.34;5009068;28;20046;-62
2022/01/04 09:53:42;;;;;;;3.63;1.58;;;;;;;10.51;75.10;92319.59;5010097;28;20561;-62
2022/01/04 09:56:09;;;;;;;4.22;1.58;;;;;;;10.48;75.51;92320.50;5008913;28;20042;-62
2022/01/04 09:58:36;;;;;;;4.35;1.50;;;;;;;10.50;74.84;92323.56;5008919;28;20061;-62
2022/01/04 10:01:03;;;;;;;4.80;1.70;;;;;;;10.55;75.34;92328.44;5009908;28;20042;-62
2022/01/04 10:03:31;;;;;;;4.60;1.77;;;;;;;10.62;74.77;92332.84;5041210;28;20056;-62
2022/01/04 10:06:15;;;;;;;4.03;1.50;;;;;;;10.78;72.95;92313.41;5010264;28;20048;-62
2022/01/04 10:09:11;;;;;;;5.97;2.10;;;;;;;10.97;72.67;92307.91;5009247;28;20813;-62
2022/01/04 10:11:43;;;;;;;3.17;1.35;;;;;;;11.13;71.27;92315.84;5009377;28;20056;-62
2022/01/04 10:14:23;;;;;;;3.20;1.58;;;;;;;10.88;72.80;92300.41;5010009;28;20049;-62
2022/01/04 10:16:56;;;;;;;3.37;1.50;;;;;;;10.66;74.40;92292.31;5009714;28;20139;-62
2022/01/04 10:19:30;;;;;;;3.30;1.70;;;;;;;10.55;74.69;92298.28;5008686;28;20050;-60
2022/01/04 10:22:20;;;;;;;3.35;1.73;;;;;;;10.45;74.42;92293.22;5009814;28;20046;-60
2022/01/04 10:25:06;;;;;;;4.80;1.90;;;;;;;10.29;75.83;92275.78;4998106;28;20260;-61
2022/01/04 10:27:38;;;;;;;3.22;1.45;;;;;;;10.41;74.56;92278.91;4989798;28;20062;-61
2022/01/04 10:30:31;;;;;;;4.30;1.53;;;;;;;10.66;74.64;92273.13;4990074;28;20042;-61
2022/01/04 10:33:19;;;;;;;4.10;1.95;;;;;;;10.83;72.28;92270.84;4989771;28;21645;-62
2022/01/04 10:35:53;;;;;;;3.70;1.90;;;;;;;10.84;73.13;92269.63;4989800;28;21535;-62
2022/01/04 10:38:23;;;;;;;3.80;1.80;;;;;;;11.00;72.16;92249.34;4989736;28;20042;-61
2022/01/04 10:41:05;;;;;;;4.55;1.80;;;;;;;11.05;71.59;92254.22;4990351;28;20042;-61
2022/01/04 10:43:54;;;;;;;3.40;1.67;;;;;;;11.16;71.56;92260.00;4989509;28;20053;-62
2022/01/04 10:46:33;;;;;;;3.75;2.20;;;;;;;11.35;70.76;92257.25;4989278;28;20476;-61
2022/01/04 10:49:01;;;;;;;5.95;3.20;;;;;;;11.20;71.00;92233.16;4990754;28;20050;-61
2022/01/04 10:51:30;;;;;;;4.38;1.90;;;;;;;11.10;71.18;92236.38;4990183;28;20042;-62
2022/01/04 10:54:06;;;;;;;14.75;3.95;;;;;;;11.12;71.66;92225.69;4990568;28;20042;-63
2022/01/04 10:56:36;;;;;;;7.07;3.33;;;;;;;11.14;71.20;92217.75;4988215;28;20415;-62
2022/01/04 10:59:07;;;;;;;4.68;2.30;;;;;;;11.11;71.35;92204.97;4990239;28;20061;-63
2022/01/04 11:01:42;;;;;;;5.47;2.35;;;;;;;11.38;69.12;92210.38;4989667;28;20388;-62
2022/01/04 11:04:19;;;;;;;4.55;2.20;;;;;;;12.22;65.97;92188.78;4989430;28;20073;-62
2022/01/04 11:06:47;;;;;;;4.63;2.40;;;;;;;12.80;64.71;92186.69;5001944;28;20390;-62
2022/01/04 11:09:16;;;;;;;4.00;2.17;;;;;;;13.53;62.41;92176.94;5009699;28;20042;-63
2022/01/04 11:11:42;;;;;;;4.03;2.00;;;;;;;13.72;61.20;92171.19;5008994;28;20716;-63
2022/01/04 11:14:11;;;;;;;4.88;2.10;;;;;;;13.18;63.25;92185.13;5008890;28;20155;-60
2022/01/04 11:16:40;;;;;;;6.55;2.20;;;;;;;12.52;65.60;92192.41;5009150;28;20041;-62
2022/01/04 11:19:07;;;;;;;3.90;2.05;;;;;;;12.51;65.87;92187.38;5009892;28;20071;-63
2022/01/04 11:21:37;;;;;;;3.40;1.80;;;;;;;12.28;64.95;92164.91;5009396;28;20052;-62
2022/01/04 11:24:07;;;;;;;4.22;1.90;;;;;;;11.83;67.10;92176.91;5009810;28;20475;-62
2022/01/04 11:26:38;;;;;;;3.65;1.88;;;;;;;11.65;67.75;92177.75;5009458;28;20044;-62
2022/01/04 11:29:05;;;;;;;9.25;2.65;;;;;;;11.62;68.42;92179.47;5009451;28;20050;-62
2022/01/04 11:32:02;;;;;;;5.97;2.20;;;;;;;11.60;68.37;92182.66;5009051;28;20050;-62
2022/01/04 11:34:53;;;;;;;4.83;2.17;;;;;;;11.34;69.37;92179.56;5008945;28;20049;-62
2022/01/04 11:37:22;;;;;;;3.17;1.67;;;;;;;11.24;69.41;92199.28;5009249;28;20052;-62
2022/01/04 11:39:51;;;;;;;3.97;1.90;;;;;;;11.34;68.97;92189.78;5009615;28;20060;-63
2022/01/04 11:42:38;;;;;;;5.70;1.80;;;;;;;11.36;70.25;92203.81;5008643;28;20050;-62
2022/01/04 11:45:07;;;;;;;6.30;2.20;;;;;;;11.17;70.91;92205.88;5009225;28;20038;-63
2022/01/04 11:47:37;;;;;;;3.53;1.87;;;;;;;11.07;72.27;92210.59;5008287;28;20103;-63
2022/01/04 11:50:15;;;;;;;5.03;2.00;;;;;;;11.14;74.76;92206.78;5009302;28;20048;-62
2022/01/04 11:52:48;;;;;;;5.22;2.20;;;;;;;11.14;74.43;92217.75;5007776;28;20042;-62